createdAt,value
2019-05-30T00:00:06.884Z,71.18
2019-05-30T00:02:21.967Z,71.84
2019-05-30T00:04:49.282Z,71.97
2019-05-30T00:07:16.683Z,70.89
2019-05-30T00:09:44.440Z,72.09
2019-05-30T00:12:12.219Z,72.13
2019-05-30T00:14:39.585Z,71.56
2019-05-30T00:17:07.385Z,71.35
2019-05-30T00:19:34.384Z,72.87
2019-05-30T00:22:03.728Z,72.13
2019-05-30T00:24:31.056Z,73.19
2019-05-30T00:26:58.410Z,73.11
2019-05-30T00:29:25.692Z,72.86
2019-05-30T00:31:53.101Z,73.08
2019-05-30T00:34:20.508Z,73.67
2019-05-30T00:36:48.548Z,73.84
2019-05-30T00:39:15.844Z,73.78
2019-05-30T00:41:42.862Z,73.70
2019-05-30T00:44:09.848Z,73.86
2019-05-30T00:46:37.643Z,75.44
2019-05-30T00:49:06.599Z,74.58
2019-05-30T00:51:34.508Z,74.80
2019-05-30T00:54:02.918Z,75.59
2019-05-30T00:56:30.441Z,75.42
2019-05-30T00:58:58.701Z,75.46
2019-05-30T01:01:26.759Z,75.27
2019-05-30T01:03:54.116Z,75.34
2019-05-30T01:06:21.818Z,75.45
2019-05-30T01:08:50.126Z,77.17
2019-05-30T01:11:17.931Z,77.51
2019-05-30T01:13:44.925Z,76.57
2019-05-30T01:16:12.329Z,75.65
2019-05-30T01:18:39.699Z,75.46
2019-05-30T01:21:07.581Z,76.36
2019-05-30T01:23:38.038Z,76.94
2019-05-30T01:26:05.690Z,76.61
2019-05-30T01:28:33.029Z,76.82
2019-05-30T01:31:05.557Z,76.72
2019-05-30T01:33:29.761Z,76.78
2019-05-30T01:35:57.766Z,76.87
2019-05-30T01:38:25.338Z,76.87
2019-05-30T01:40:53.503Z,77.54
2019-05-30T01:43:21.510Z,77.67
2019-05-30T01:45:49.202Z,77.94
2019-05-30T01:48:16.568Z,76.82
2019-05-30T01:50:44.599Z,78.10
2019-05-30T01:53:11.710Z,77.27
2019-05-30T01:55:39.170Z,77.74
2019-05-30T01:58:07.239Z,77.81
2019-05-30T02:00:40.831Z,77.92
2019-05-30T02:03:09.506Z,77.39
2019-05-30T02:05:37.391Z,77.20
2019-05-30T02:08:05.426Z,77.63
2019-05-30T02:10:33.269Z,77.74
2019-05-30T02:13:01.199Z,77.01
2019-05-30T02:15:28.654Z,77.01
2019-05-30T02:17:55.743Z,78.59
2019-05-30T02:20:22.793Z,77.71
2019-05-30T02:22:50.187Z,77.64
2019-05-30T02:25:17.736Z,77.87
2019-05-30T02:27:45.489Z,78.02
2019-05-30T02:30:15.026Z,77.85
2019-05-30T02:32:43.313Z,77.73
2019-05-30T02:35:12.765Z,77.61
2019-05-30T02:37:39.922Z,77.46
2019-05-30T02:40:10.564Z,77.33
2019-05-30T02:42:37.618Z,77.56
2019-05-30T02:45:07.862Z,77.52
2019-05-30T02:47:36.359Z,77.17
2019-05-30T02:50:06.126Z,77.38
2019-05-30T02:52:35.182Z,77.49
2019-05-30T02:55:03.929Z,77.42
2019-05-30T02:57:32.311Z,78.28
2019-05-30T03:00:01.745Z,77.64
2019-05-30T03:02:28.924Z,77.73
2019-05-30T03:04:56.412Z,77.02
2019-05-30T03:07:24.103Z,78.40
2019-05-30T03:09:51.778Z,78.77
2019-05-30T03:12:19.360Z,78.62
2019-05-30T03:14:47.427Z,78.65
2019-05-30T03:17:15.211Z,78.86
2019-05-30T03:19:43.203Z,78.85
2019-05-30T03:22:12.209Z,79.07
2019-05-30T03:24:40.371Z,78.47
2019-05-30T03:27:09.915Z,78.96
2019-05-30T03:29:37.236Z,79.27
2019-05-30T03:32:39.088Z,79.90
2019-05-30T03:34:36.409Z,79.41
2019-05-30T03:37:09.366Z,78.79
2019-05-30T03:39:35.078Z,78.57
2019-05-30T03:42:04.496Z,79.14
2019-05-30T03:44:32.059Z,79.17
2019-05-30T03:47:03.919Z,79.38
2019-05-30T03:49:35.322Z,79.64
2019-05-30T03:52:08.092Z,78.66
2019-05-30T03:54:36.163Z,78.52
2019-05-30T03:57:13.983Z,78.85
2019-05-30T03:59:46.546Z,77.96
2019-05-30T04:02:22.691Z,77.57
2019-05-30T04:04:56.705Z,77.40
2019-05-30T04:07:26.552Z,78.46
2019-05-30T04:09:56.819Z,78.10
2019-05-30T04:12:52.131Z,78.07
2019-05-30T04:15:32.141Z,78.39
2019-05-30T04:18:00.186Z,77.86
2019-05-30T04:20:27.522Z,77.35
2019-05-30T04:22:54.646Z,76.72
2019-05-30T04:25:22.326Z,77.47
2019-05-30T04:27:49.648Z,76.77
2019-05-30T04:30:18.598Z,77.13
2019-05-30T04:32:46.600Z,77.24
2019-05-30T04:35:14.687Z,77.02
2019-05-30T04:37:42.850Z,77.26
2019-05-30T04:40:11.403Z,77.53
2019-05-30T04:42:39.187Z,77.55
2019-05-30T04:45:07.535Z,77.43
2019-05-30T04:47:35.632Z,77.56
2019-05-30T04:50:04.861Z,76.65
2019-05-30T04:52:32.585Z,76.46
2019-05-30T04:54:59.940Z,77.55
2019-05-30T04:57:27.340Z,76.92
2019-05-30T04:59:54.529Z,74.71
2019-05-30T05:02:23.304Z,74.47
2019-05-30T05:04:51.472Z,75.03
2019-05-30T05:07:19.873Z,74.78
2019-05-30T05:09:47.402Z,75.15
2019-05-30T05:12:16.117Z,75.64
2019-05-30T05:14:43.610Z,73.62
2019-05-30T05:17:12.734Z,74.66
2019-05-30T05:19:41.080Z,74.46
2019-05-30T05:22:09.135Z,75.37
2019-05-30T05:24:36.624Z,75.72
2019-05-30T05:27:04.238Z,79.38
2019-05-30T05:29:31.930Z,78.62
2019-05-30T05:31:59.261Z,76.38
2019-05-30T05:34:27.037Z,76.41
2019-05-30T05:36:54.483Z,76.07
2019-05-30T05:39:22.238Z,81.45
2019-05-30T05:41:50.443Z,77.34
2019-05-30T05:44:18.301Z,78.87
2019-05-30T05:46:46.496Z,77.21
2019-05-30T05:49:13.588Z,77.84
2019-05-30T05:51:40.598Z,79.41
2019-05-30T05:54:07.658Z,80.95
2019-05-30T05:56:35.039Z,77.52
2019-05-30T05:59:02.014Z,78.81
2019-05-30T06:01:30.142Z,79.86
2019-05-30T06:04:12.164Z,79.80
2019-05-30T06:06:27.425Z,76.69
2019-05-30T06:08:55.352Z,76.70
2019-05-30T06:11:22.748Z,76.04
2019-05-30T06:13:50.337Z,76.82
2019-05-30T06:16:17.813Z,79.26
2019-05-30T06:18:47.475Z,78.59
2019-05-30T06:21:14.883Z,79.04
2019-05-30T06:23:45.460Z,77.32
2019-05-30T06:26:11.943Z,78.22
2019-05-30T06:28:39.644Z,79.06
2019-05-30T06:31:07.003Z,79.67
2019-05-30T06:33:35.242Z,77.89
2019-05-30T06:36:03.933Z,75.97
2019-05-30T06:38:31.692Z,78.86
2019-05-30T06:40:59.547Z,77.64
2019-05-30T06:43:28.139Z,76.67
2019-05-30T06:45:55.742Z,77.25
2019-05-30T06:48:24.650Z,77.00
2019-05-30T06:50:52.903Z,75.74
2019-05-30T06:53:21.027Z,75.04
2019-05-30T06:55:48.093Z,76.48
2019-05-30T06:58:15.164Z,77.06
2019-05-30T07:00:42.301Z,79.80
2019-05-30T07:03:10.067Z,77.51
2019-05-30T07:05:37.977Z,77.78
2019-05-30T07:08:05.602Z,78.70
2019-05-30T07:10:33.388Z,81.34
2019-05-30T07:13:03.990Z,78.34
2019-05-30T07:15:31.466Z,77.93
2019-05-30T07:17:58.837Z,78.84
2019-05-30T07:20:25.864Z,78.80
2019-05-30T07:22:53.329Z,81.33
2019-05-30T07:25:21.348Z,82.74
2019-05-30T07:27:48.402Z,83.73
2019-05-30T07:30:15.914Z,81.25
2019-05-30T07:32:45.455Z,82.73
2019-05-30T07:35:12.677Z,82.35
2019-05-30T07:37:40.334Z,79.68
2019-05-30T07:40:09.263Z,81.38
2019-05-30T07:42:36.810Z,79.91
2019-05-30T07:45:05.625Z,78.14
2019-05-30T07:47:34.314Z,80.85
2019-05-30T07:50:01.635Z,82.05
2019-05-30T07:52:30.529Z,81.97
2019-05-30T07:54:58.271Z,83.32
2019-05-30T07:57:30.241Z,83.94
2019-05-30T08:00:02.794Z,85.58
2019-05-30T08:02:31.606Z,86.38
2019-05-30T08:05:03.028Z,90.27
2019-05-30T08:07:30.705Z,89.92
2019-05-30T08:09:57.830Z,91.00
2019-05-30T08:12:25.601Z,91.66
2019-05-30T08:14:53.391Z,90.92
2019-05-30T08:17:20.463Z,92.66
2019-05-30T08:19:47.849Z,93.13
2019-05-30T08:22:15.877Z,89.58
2019-05-30T08:24:43.975Z,92.13
2019-05-30T08:27:11.330Z,88.74
2019-05-30T08:29:39.154Z,89.65
2019-05-30T08:32:06.595Z,87.11
2019-05-30T08:34:34.706Z,86.29
2019-05-30T08:37:02.435Z,86.52
2019-05-30T08:39:30.917Z,86.61
2019-05-30T08:42:13.092Z,82.11
2019-05-30T08:44:40.798Z,84.15
2019-05-30T08:47:08.299Z,83.02
2019-05-30T08:49:36.143Z,82.72
2019-05-30T08:52:03.405Z,81.36
2019-05-30T08:54:30.463Z,82.42
2019-05-30T08:56:58.125Z,82.98
2019-05-30T08:59:25.198Z,79.83
2019-05-30T09:01:53.259Z,81.29
2019-05-30T09:04:21.359Z,84.21
2019-05-30T09:06:48.404Z,80.95
2019-05-30T09:09:15.453Z,80.16
2019-05-30T09:11:42.896Z,81.45
2019-05-30T09:14:10.633Z,84.56
2019-05-30T09:16:38.930Z,82.00
2019-05-30T09:19:05.994Z,80.41
2019-05-30T09:21:33.356Z,81.91
2019-05-30T09:24:02.892Z,82.82
2019-05-30T09:26:30.249Z,80.38
2019-05-30T09:28:57.594Z,79.20
2019-05-30T09:31:24.924Z,79.09
2019-05-30T09:33:52.199Z,79.66
2019-05-30T09:36:19.274Z,81.30
2019-05-30T09:38:49.648Z,79.59
2019-05-30T09:41:17.511Z,79.60
2019-05-30T09:43:46.346Z,81.90
2019-05-30T09:46:14.047Z,79.22
2019-05-30T09:48:43.193Z,80.97
2019-05-30T09:51:11.143Z,80.12
2019-05-30T09:53:39.301Z,79.64
2019-05-30T09:56:06.661Z,79.85
2019-05-30T09:58:34.434Z,82.34
2019-05-30T10:01:03.708Z,81.68
2019-05-30T10:03:30.859Z,83.25
2019-05-30T10:05:58.614Z,80.82
2019-05-30T10:08:26.033Z,82.73
2019-05-30T10:10:53.641Z,83.61
2019-05-30T10:13:22.459Z,81.77
2019-05-30T10:15:50.525Z,80.92
2019-05-30T10:18:22.162Z,81.48
2019-05-30T10:21:25.909Z,81.76
2019-05-30T10:23:53.813Z,81.70
2019-05-30T10:26:21.353Z,82.03
2019-05-30T10:28:49.536Z,82.37
2019-05-30T10:31:17.151Z,81.61
2019-05-30T10:33:45.940Z,81.90
2019-05-30T10:36:20.687Z,81.80
2019-05-30T10:38:50.278Z,81.72
2019-05-30T10:41:21.066Z,84.11
2019-05-30T10:43:51.037Z,83.57
2019-05-30T10:46:19.011Z,82.47
2019-05-30T10:48:47.328Z,84.64
2019-05-30T10:51:15.317Z,85.67
2019-05-30T10:53:42.825Z,82.60
2019-05-30T10:58:50.774Z,83.25
2019-05-30T11:01:18.202Z,87.79
2019-05-30T11:03:46.029Z,84.20
2019-05-30T11:06:26.789Z,83.69
2019-05-30T11:08:57.782Z,81.27
2019-05-30T11:11:25.201Z,82.54
2019-05-30T11:13:53.285Z,81.44
2019-05-30T11:16:21.222Z,82.41
2019-05-30T11:18:49.352Z,81.37
2019-05-30T11:21:19.026Z,81.84
2019-05-30T11:23:46.464Z,80.07
2019-05-30T11:26:14.116Z,82.92
2019-05-30T11:28:41.182Z,81.78
2019-05-30T11:31:08.963Z,81.89
2019-05-30T11:33:36.287Z,81.90
2019-05-30T11:36:04.153Z,81.25
2019-05-30T11:38:32.346Z,82.44
2019-05-30T11:41:00.484Z,82.73
2019-05-30T11:43:28.254Z,81.67
2019-05-30T11:45:56.094Z,82.91
2019-05-30T11:48:23.604Z,82.93
2019-05-30T11:50:51.937Z,82.64
2019-05-30T11:53:19.503Z,80.92
2019-05-30T11:55:47.082Z,81.86
2019-05-30T11:58:19.223Z,80.77
2019-05-30T12:00:45.443Z,81.35
2019-05-30T12:03:12.844Z,82.03
2019-05-30T12:05:39.899Z,81.10
2019-05-30T12:08:07.335Z,81.71
2019-05-30T12:10:34.727Z,81.39
2019-05-30T12:13:02.045Z,81.79
2019-05-30T12:15:29.431Z,81.50
2019-05-30T12:17:57.487Z,81.80
2019-05-30T12:20:24.815Z,82.22
2019-05-30T12:22:53.786Z,81.83
2019-05-30T12:25:21.095Z,82.96
2019-05-30T12:27:48.929Z,81.94
2019-05-30T12:30:16.338Z,82.01
2019-05-30T12:32:43.834Z,82.24
2019-05-30T12:35:13.060Z,82.79
2019-05-30T12:37:54.072Z,81.39
2019-05-30T12:40:10.823Z,84.43
2019-05-30T12:42:38.118Z,84.68
2019-05-30T12:45:07.363Z,85.11
2019-05-30T12:47:34.515Z,83.13
2019-05-30T12:50:03.466Z,83.16
2019-05-30T12:52:31.350Z,82.99
2019-05-30T12:54:58.845Z,84.15
2019-05-30T12:57:27.382Z,84.01
2019-05-30T12:59:55.148Z,84.28
2019-05-30T13:02:22.743Z,84.13
2019-05-30T13:04:50.468Z,83.85
2019-05-30T13:07:18.195Z,83.15
2019-05-30T13:09:45.971Z,85.17
2019-05-30T13:12:14.018Z,84.75
2019-05-30T13:14:41.839Z,82.86
2019-05-30T13:17:09.940Z,83.81
2019-05-30T13:19:37.447Z,84.05
2019-05-30T13:22:05.048Z,82.86
2019-05-30T13:24:33.079Z,83.05
2019-05-30T13:27:05.966Z,83.82
2019-05-30T13:29:33.195Z,83.93
2019-05-30T13:32:04.691Z,83.68
2019-05-30T13:34:32.558Z,84.45
2019-05-30T13:37:00.704Z,84.62
2019-05-30T13:39:29.736Z,83.53
2019-05-30T13:41:57.524Z,84.78
2019-05-30T13:44:25.238Z,83.78
2019-05-30T13:46:53.427Z,84.87
2019-05-30T13:49:20.475Z,85.14
2019-05-30T13:51:47.516Z,84.27
2019-05-30T13:54:14.534Z,85.21
2019-05-30T13:56:41.889Z,84.92
2019-05-30T13:59:10.114Z,84.30
2019-05-30T14:01:37.965Z,86.25
2019-05-30T14:04:06.281Z,84.35
2019-05-30T14:06:33.421Z,85.21
2019-05-30T14:09:02.849Z,84.96
2019-05-30T14:11:29.916Z,85.19
2019-05-30T14:13:57.679Z,84.90
2019-05-30T14:16:25.589Z,84.87
2019-05-30T14:18:53.024Z,85.61
2019-05-30T14:21:20.788Z,84.83
2019-05-30T14:23:48.775Z,83.53
2019-05-30T14:26:16.540Z,83.37
2019-05-30T14:28:44.171Z,85.41
2019-05-30T14:31:13.564Z,84.91
2019-05-30T14:33:41.153Z,85.76
2019-05-30T14:36:12.113Z,85.83
2019-05-30T14:38:38.925Z,86.31
2019-05-30T14:41:09.079Z,85.73
2019-05-30T14:43:38.976Z,87.15
2019-05-30T14:46:06.387Z,86.18
2019-05-30T14:48:34.198Z,85.59
2019-05-30T14:51:01.292Z,86.53
2019-05-30T14:53:28.681Z,86.28
2019-05-30T14:55:56.238Z,86.70
2019-05-30T14:58:26.509Z,86.31
2019-05-30T15:00:54.691Z,86.81
2019-05-30T15:03:22.430Z,86.54
2019-05-30T15:05:50.769Z,86.69
2019-05-30T15:08:17.920Z,86.92
2019-05-30T15:10:45.284Z,86.63
2019-05-30T15:13:13.743Z,86.74
2019-05-30T15:15:41.592Z,87.39
2019-05-30T15:18:09.456Z,86.74
2019-05-30T15:20:39.750Z,87.43
2019-05-30T15:23:07.599Z,87.71
2019-05-30T15:25:35.237Z,88.21
2019-05-30T15:28:02.380Z,86.79
2019-05-30T15:30:30.364Z,87.20
2019-05-30T15:32:57.982Z,87.62
2019-05-30T15:35:25.361Z,87.89
2019-05-30T15:37:53.171Z,88.08
2019-05-30T15:40:22.803Z,88.70
2019-05-30T15:42:53.063Z,88.34
2019-05-30T15:45:18.907Z,88.38
2019-05-30T15:47:46.642Z,89.09
2019-05-30T15:50:15.373Z,89.34
2019-05-30T15:52:44.356Z,88.79
2019-05-30T15:55:11.649Z,87.87
2019-05-30T15:57:39.391Z,89.09
2019-05-30T16:00:07.892Z,89.67
2019-05-30T16:02:35.674Z,88.69
2019-05-30T16:05:03.735Z,88.44
2019-05-30T16:07:30.759Z,87.94
2019-05-30T16:09:58.634Z,88.80
2019-05-30T16:12:26.093Z,89.00
2019-05-30T16:14:53.480Z,88.96
2019-05-30T16:17:21.774Z,88.70
2019-05-30T16:19:49.675Z,88.61
2019-05-30T16:22:18.277Z,89.13
2019-05-30T16:24:45.942Z,89.28
2019-05-30T16:27:13.760Z,88.93
2019-05-30T16:29:41.728Z,89.57
2019-05-30T16:32:09.768Z,88.96
2019-05-30T16:34:37.280Z,88.30
2019-05-30T16:37:04.346Z,87.26
2019-05-30T16:39:31.929Z,87.31
2019-05-30T16:41:59.331Z,88.19
2019-05-30T16:44:26.867Z,88.28
2019-05-30T16:46:53.918Z,88.77
2019-05-30T16:49:22.937Z,88.12
2019-05-30T16:51:50.457Z,88.97
2019-05-30T16:54:19.185Z,88.68
2019-05-30T16:56:46.868Z,89.65
2019-05-30T16:59:14.716Z,88.93
2019-05-30T17:01:42.100Z,87.93
2019-05-30T17:04:10.883Z,87.32
2019-05-30T17:06:38.309Z,87.95
2019-05-30T17:09:06.291Z,87.06
2019-05-30T17:11:33.709Z,86.51
2019-05-30T17:14:03.273Z,87.24
2019-05-30T17:16:30.657Z,87.44
2019-05-30T17:18:58.466Z,87.34
2019-05-30T17:21:26.816Z,87.79
2019-05-30T17:23:57.278Z,88.14
2019-05-30T17:26:25.366Z,87.21
2019-05-30T17:28:53.338Z,87.93
2019-05-30T17:31:21.845Z,88.58
2019-05-30T17:33:49.736Z,87.30
2019-05-30T17:36:18.022Z,87.28
2019-05-30T17:38:45.505Z,87.24
2019-05-30T17:41:12.566Z,87.13
2019-05-30T17:43:40.465Z,86.35
2019-05-30T17:46:08.322Z,86.93
2019-05-30T17:48:36.565Z,87.10
2019-05-30T17:51:03.705Z,85.87
2019-05-30T17:53:30.771Z,86.22
2019-05-30T17:56:08.229Z,85.77
2019-05-30T17:58:35.809Z,86.48
2019-05-30T18:01:03.575Z,87.08
2019-05-30T18:03:31.960Z,85.53
2019-05-30T18:05:59.048Z,85.45
2019-05-30T18:08:26.909Z,86.31
2019-05-30T18:10:54.760Z,86.23
2019-05-30T18:13:23.043Z,86.33
2019-05-30T18:15:50.265Z,87.67
2019-05-30T18:18:17.603Z,87.55
2019-05-30T18:20:48.379Z,88.43
2019-05-30T18:23:14.797Z,89.00
2019-05-30T18:25:41.865Z,89.04
2019-05-30T18:28:09.658Z,89.33
2019-05-30T18:30:41.780Z,90.47
2019-05-30T18:33:09.558Z,90.99
2019-05-30T18:35:37.596Z,90.82
2019-05-30T18:38:04.675Z,91.09
2019-05-30T18:40:33.259Z,91.89
2019-05-30T18:43:01.136Z,91.14
2019-05-30T18:45:36.360Z,91.79
2019-05-30T18:48:04.026Z,91.58
2019-05-30T18:50:32.016Z,91.64
2019-05-30T18:52:59.655Z,91.04
2019-05-30T18:55:28.472Z,91.64
2019-05-30T18:57:56.184Z,92.22
2019-05-30T19:00:23.418Z,93.35
2019-05-30T19:02:50.836Z,93.24
2019-05-30T19:05:18.646Z,93.19
2019-05-30T19:07:46.483Z,94.04
2019-05-30T19:10:13.615Z,94.23
2019-05-30T19:12:41.437Z,94.65
2019-05-30T19:15:08.944Z,94.59
2019-05-30T19:17:36.372Z,95.96
2019-05-30T19:20:04.601Z,96.27
2019-05-30T19:22:32.469Z,97.12
2019-05-30T19:24:59.989Z,96.64
2019-05-30T19:27:28.729Z,96.49
2019-05-30T19:29:57.468Z,97.79
2019-05-30T19:32:24.909Z,97.19
2019-05-30T19:34:52.647Z,97.87
2019-05-30T19:37:20.051Z,99.00
2019-05-30T19:39:47.157Z,100.00
2019-05-30T19:42:14.964Z,100.00
2019-05-30T19:44:42.350Z,99.79
2019-05-30T19:47:09.806Z,100.00
2019-05-30T19:49:38.592Z,99.51
2019-05-30T19:52:06.074Z,100.00
2019-05-30T19:54:33.137Z,100.00
2019-05-30T19:57:00.502Z,100.00
2019-05-30T19:59:27.975Z,100.00
2019-05-30T20:01:55.085Z,100.00
2019-05-30T20:04:22.607Z,100.00
2019-05-30T20:06:50.270Z,100.00
2019-05-30T20:09:17.318Z,100.00
2019-05-30T20:12:01.834Z,100.00
2019-05-30T20:14:14.332Z,100.00
2019-05-30T20:16:42.074Z,100.00
2019-05-30T20:19:09.881Z,100.00
2019-05-30T20:21:37.865Z,100.00
2019-05-30T20:24:05.626Z,100.00
2019-05-30T20:26:34.425Z,100.00
2019-05-30T20:29:04.644Z,100.00
2019-05-30T20:31:33.324Z,100.00
2019-05-30T20:34:01.453Z,100.00
2019-05-30T20:36:29.171Z,100.00
2019-05-30T20:38:57.110Z,100.00
2019-05-30T20:41:24.171Z,100.00
2019-05-30T20:43:51.537Z,100.00
2019-05-30T20:46:23.230Z,100.00
2019-05-30T20:48:48.729Z,100.00
2019-05-30T20:51:21.100Z,100.00
2019-05-30T20:53:45.483Z,100.00
2019-05-30T20:56:13.069Z,100.00
2019-05-30T20:58:41.825Z,100.00
2019-05-30T21:01:09.686Z,100.00
2019-05-30T21:03:37.870Z,100.00
2019-05-30T21:06:05.453Z,100.00
2019-05-30T21:08:34.881Z,100.00
2019-05-30T21:11:02.521Z,100.00
2019-05-30T21:13:34.235Z,100.00
2019-05-30T21:16:03.998Z,100.00
2019-05-30T21:18:35.642Z,100.00
2019-05-30T21:21:03.174Z,100.00
2019-05-30T21:23:30.712Z,100.00
2019-05-30T21:25:58.478Z,100.00
2019-05-30T21:28:26.017Z,100.00
2019-05-30T21:30:53.480Z,100.00
2019-05-30T21:33:21.301Z,100.00
2019-05-30T21:35:48.501Z,100.00
2019-05-30T21:38:15.819Z,100.00
2019-05-30T21:40:44.473Z,100.00
2019-05-30T21:43:12.335Z,100.00
2019-05-30T21:45:40.353Z,100.00
2019-05-30T21:48:07.471Z,100.00
2019-05-30T21:50:34.511Z,100.00
2019-05-30T21:53:01.533Z,100.00
2019-05-30T21:55:28.612Z,100.00
2019-05-30T21:57:55.798Z,100.00
2019-05-30T22:00:53.331Z,100.00
2019-05-30T22:03:21.073Z,100.00
2019-05-30T22:05:48.620Z,100.00
2019-05-30T22:08:17.589Z,100.00
2019-05-30T22:10:45.418Z,100.00
2019-05-30T22:13:12.823Z,100.00
2019-05-30T22:15:41.620Z,100.00
2019-05-30T22:18:09.375Z,100.00
2019-05-30T22:20:37.118Z,100.00
2019-05-30T22:23:04.465Z,100.00
2019-05-30T22:25:31.891Z,100.00
2019-05-30T22:27:58.961Z,100.00
2019-05-30T22:30:26.308Z,100.00
2019-05-30T22:32:53.731Z,100.00
2019-05-30T22:35:21.253Z,100.00
2019-05-30T22:37:48.928Z,100.00
2019-05-30T22:40:16.193Z,100.00
2019-05-30T22:42:46.030Z,100.00
2019-05-30T22:45:14.835Z,100.00
2019-05-30T22:47:42.566Z,100.00
2019-05-30T22:50:09.978Z,100.00
2019-05-30T22:52:37.032Z,100.00
2019-05-30T22:55:04.237Z,100.00
2019-05-30T22:57:31.954Z,100.00
2019-05-30T22:59:59.995Z,100.00
2019-05-30T23:02:28.174Z,100.00
2019-05-30T23:04:56.416Z,100.00
2019-05-30T23:07:23.873Z,100.00
2019-05-30T23:09:51.877Z,100.00
2019-05-30T23:12:19.683Z,100.00
2019-05-30T23:14:48.025Z,100.00
2019-05-30T23:17:15.485Z,100.00
2019-05-30T23:19:42.517Z,100.00
2019-05-30T23:22:09.594Z,100.00
2019-05-30T23:24:36.778Z,100.00
2019-05-30T23:27:03.884Z,100.00
2019-05-30T23:29:30.937Z,100.00
2019-05-30T23:31:58.412Z,100.00
2019-05-30T23:34:25.505Z,100.00
2019-05-30T23:36:53.034Z,100.00
2019-05-30T23:39:21.415Z,100.00
2019-05-30T23:41:48.919Z,100.00
2019-05-30T23:44:16.207Z,100.00
2019-05-30T23:46:43.274Z,100.00
2019-05-30T23:49:10.631Z,100.00
2019-05-30T23:51:38.405Z,100.00
2019-05-30T23:54:06.082Z,100.00
2019-05-30T23:56:33.703Z,100.00
2019-05-30T23:59:01.326Z,100.00
